Terminal Aerodrome Forecast
Issued by NWS Topeka, KS

Home | Current Version | Previous Version | Graphics & Text | Print | Product List | Glossary On
Versions: 1 2 3 4 5 6 7 8 9 10 11 12 13 14 15 16
000
FTUS43 KTOP 170500
TAFTOP
TAF
KTOP 170520Z 1706/1806 34008KT P6SM BKN100
     FM171800 02006KT P6SM SCT100
     FM180000 11005KT P6SM SCT100=

USA.gov is the U.S. government's official web portal to all federal, state and local government web resources and services.